sensor_id;sensor_type;location;lat;lon;timestamp;pressure;altitude;pressure_sealevel;temperature;humidity
29169;BME280;16219;42.864;23.360;2023-01-25T00:02:26;97005.34;;;1.74;100.00
29169;BME280;16219;42.864;23.360;2023-01-25T00:04:53;97008.31;;;1.66;100.00
29169;BME280;16219;42.864;23.360;2023-01-25T00:07:21;97005.94;;;1.76;100.00
29169;BME280;16219;42.864;23.360;2023-01-25T00:09:48;97004.38;;;1.75;100.00
29169;BME280;16219;42.864;23.360;2023-01-25T00:12:15;96997.22;;;1.70;100.00
29169;BME280;16219;42.864;23.360;2023-01-25T00:14:44;97002.09;;;1.67;100.00
29169;BME280;16219;42.864;23.360;2023-01-25T00:17:11;96996.88;;;1.67;100.00
29169;BME280;16219;42.864;23.360;2023-01-25T00:19:38;97000.84;;;1.81;100.00
29169;BME280;16219;42.864;23.360;2023-01-25T00:22:05;97012.16;;;1.75;100.00
29169;BME280;16219;42.864;23.360;2023-01-25T00:24:33;97006.06;;;1.81;100.00
29169;BME280;16219;42.864;23.360;2023-01-25T00:27:01;97011.28;;;1.93;100.00
29169;BME280;16219;42.864;23.360;2023-01-25T00:29:30;97002.56;;;1.99;100.00
29169;BME280;16219;42.864;23.360;2023-01-25T00:32:06;97012.31;;;2.15;100.00
29169;BME280;16219;42.864;23.360;2023-01-25T00:34:45;97010.75;;;2.26;100.00
29169;BME280;16219;42.864;23.360;2023-01-25T00:37:18;96998.84;;;2.30;100.00
29169;BME280;16219;42.864;23.360;2023-01-25T00:39:46;97009.13;;;2.37;100.00
29169;BME280;16219;42.864;23.360;2023-01-25T00:42:15;97005.53;;;2.26;100.00
29169;BME280;16219;42.864;23.360;2023-01-25T00:44:44;97004.84;;;2.31;100.00
29169;BME280;16219;42.864;23.360;2023-01-25T00:47:13;97008.13;;;2.14;100.00
29169;BME280;16219;42.864;23.360;2023-01-25T00:49:41;97009.25;;;2.07;100.00
29169;BME280;16219;42.864;23.360;2023-01-25T00:52:09;96989.69;;;2.04;100.00
29169;BME280;16219;42.864;23.360;2023-01-25T00:54:36;97004.41;;;2.10;100.00
29169;BME280;16219;42.864;23.360;2023-01-25T00:57:04;97013.34;;;2.26;100.00
29169;BME280;16219;42.864;23.360;2023-01-25T00:59:33;97020.47;;;2.19;100.00
29169;BME280;16219;42.864;23.360;2023-01-25T01:02:01;97014.91;;;2.15;100.00
29169;BME280;16219;42.864;23.360;2023-01-25T01:04:29;97022.97;;;2.25;100.00
29169;BME280;16219;42.864;23.360;2023-01-25T01:06:57;97018.06;;;2.29;100.00
29169;BME280;16219;42.864;23.360;2023-01-25T01:09:24;96994.53;;;2.24;100.00
29169;BME280;16219;42.864;23.360;2023-01-25T01:11:51;97013.66;;;2.41;100.00
29169;BME280;16219;42.864;23.360;2023-01-25T01:14:20;97017.44;;;2.34;100.00
29169;BME280;16219;42.864;23.360;2023-01-25T01:16:47;97011.19;;;2.23;100.00
29169;BME280;16219;42.864;23.360;2023-01-25T01:19:14;97023.66;;;2.21;100.00
29169;BME280;16219;42.864;23.360;2023-01-25T01:21:43;97007.09;;;2.15;100.00
29169;BME280;16219;42.864;23.360;2023-01-25T01:24:10;97009.50;;;2.17;100.00
29169;BME280;16219;42.864;23.360;2023-01-25T01:26:37;96998.50;;;2.15;100.00
29169;BME280;16219;42.864;23.360;2023-01-25T01:29:05;97008.03;;;2.21;100.00
29169;BME280;16219;42.864;23.360;2023-01-25T01:31:32;97008.47;;;2.18;100.00
29169;BME280;16219;42.864;23.360;2023-01-25T01:34:11;97002.47;;;2.06;100.00
29169;BME280;16219;42.864;23.360;2023-01-25T01:36:39;96997.72;;;2.03;100.00
29169;BME280;16219;42.864;23.360;2023-01-25T01:39:08;96995.91;;;2.15;100.00
29169;BME280;16219;42.864;23.360;2023-01-25T01:41:35;96995.00;;;2.21;100.00
29169;BME280;16219;42.864;23.360;2023-01-25T01:44:04;96996.94;;;2.25;100.00
29169;BME280;16219;42.864;23.360;2023-01-25T01:46:33;96994.88;;;2.28;100.00
29169;BME280;16219;42.864;23.360;2023-01-25T01:49:05;96995.22;;;2.08;100.00
29169;BME280;16219;42.864;23.360;2023-01-25T01:51:44;96989.00;;;2.09;100.00
29169;BME280;16219;42.864;23.360;2023-01-25T01:54:21;96967.38;;;1.85;100.00
29169;BME280;16219;42.864;23.360;2023-01-25T01:56:55;96985.25;;;1.81;100.00
29169;BME280;16219;42.864;23.360;2023-01-25T01:59:27;96978.03;;;1.83;100.00
29169;BME280;16219;42.864;23.360;2023-01-25T02:01:57;96986.28;;;1.92;100.00
29169;BME280;16219;42.864;23.360;2023-01-25T02:04:26;96974.41;;;1.84;100.00
29169;BME280;16219;42.864;23.360;2023-01-25T02:06:57;96982.41;;;1.94;100.00
29169;BME280;16219;42.864;23.360;2023-01-25T02:09:28;96988.09;;;2.03;100.00
29169;BME280;16219;42.864;23.360;2023-01-25T02:11:58;96983.13;;;2.02;100.00
29169;BME280;16219;42.864;23.360;2023-01-25T02:14:27;96986.41;;;2.09;100.00
29169;BME280;16219;42.864;23.360;2023-01-25T02:16:56;96978.94;;;2.00;100.00
29169;BME280;16219;42.864;23.360;2023-01-25T02:19:34;96976.78;;;1.97;100.00
29169;BME280;16219;42.864;23.360;2023-01-25T02:22:08;96969.41;;;1.94;100.00
29169;BME280;16219;42.864;23.360;2023-01-25T02:24:43;96983.44;;;1.93;100.00
29169;BME280;16219;42.864;23.360;2023-01-25T02:27:15;96968.47;;;1.65;100.00
29169;BME280;16219;42.864;23.360;2023-01-25T02:29:44;96972.34;;;1.74;100.00
29169;BME280;16219;42.864;23.360;2023-01-25T02:32:12;96995.00;;;1.97;100.00
29169;BME280;16219;42.864;23.360;2023-01-25T02:34:39;96987.41;;;2.08;100.00
29169;BME280;16219;42.864;23.360;2023-01-25T02:37:09;96990.03;;;1.96;100.00
29169;BME280;16219;42.864;23.360;2023-01-25T02:39:40;96980.28;;;1.91;100.00
29169;BME280;16219;42.864;23.360;2023-01-25T02:42:08;96979.94;;;1.99;100.00
29169;BME280;16219;42.864;23.360;2023-01-25T02:44:38;96975.75;;;2.10;100.00
29169;BME280;16219;42.864;23.360;2023-01-25T02:47:06;96969.53;;;1.99;100.00
29169;BME280;16219;42.864;23.360;2023-01-25T02:49:34;96981.66;;;2.06;100.00
29169;BME280;16219;42.864;23.360;2023-01-25T02:52:03;96981.19;;;1.85;100.00
29169;BME280;16219;42.864;23.360;2023-01-25T02:54:30;96967.59;;;1.95;100.00
29169;BME280;16219;42.864;23.360;2023-01-25T02:56:58;96975.41;;;1.95;100.00
29169;BME280;16219;42.864;23.360;2023-01-25T02:59:30;96977.47;;;1.93;100.00
29169;BME280;16219;42.864;23.360;2023-01-25T03:02:00;96965.19;;;1.58;100.00
29169;BME280;16219;42.864;23.360;2023-01-25T03:04:29;96969.50;;;1.64;100.00
29169;BME280;16219;42.864;23.360;2023-01-25T03:06:56;96963.28;;;1.54;100.00
29169;BME280;16219;42.864;23.360;2023-01-25T03:09:23;96954.31;;;1.38;100.00
29169;BME280;16219;42.864;23.360;2023-01-25T03:11:50;96955.19;;;1.32;100.00
29169;BME280;16219;42.864;23.360;2023-01-25T03:14:20;96965.81;;;1.30;100.00
29169;BME280;16219;42.864;23.360;2023-01-25T03:16:48;96967.84;;;1.40;100.00
29169;BME280;16219;42.864;23.360;2023-01-25T03:19:20;96946.81;;;1.30;100.00
29169;BME280;16219;42.864;23.360;2023-01-25T03:21:47;96953.41;;;1.44;100.00
29169;BME280;16219;42.864;23.360;2023-01-25T03:24:14;96961.13;;;1.50;100.00
29169;BME280;16219;42.864;23.360;2023-01-25T03:26:45;96971.13;;;1.35;100.00
29169;BME280;16219;42.864;23.360;2023-01-25T03:29:53;96969.34;;;1.47;100.00
29169;BME280;16219;42.864;23.360;2023-01-25T03:32:22;96965.41;;;1.45;100.00
29169;BME280;16219;42.864;23.360;2023-01-25T03:34:51;96976.91;;;1.37;100.00
29169;BME280;16219;42.864;23.360;2023-01-25T03:37:19;96968.22;;;1.43;100.00
29169;BME280;16219;42.864;23.360;2023-01-25T03:39:47;96960.88;;;1.52;100.00
29169;BME280;16219;42.864;23.360;2023-01-25T03:42:18;96964.94;;;1.48;100.00
29169;BME280;16219;42.864;23.360;2023-01-25T03:44:49;96963.72;;;1.50;100.00
29169;BME280;16219;42.864;23.360;2023-01-25T03:47:17;96956.47;;;1.53;100.00
29169;BME280;16219;42.864;23.360;2023-01-25T03:49:44;96957.06;;;1.55;100.00
29169;BME280;16219;42.864;23.360;2023-01-25T03:52:16;96966.81;;;1.71;100.00
29169;BME280;16219;42.864;23.360;2023-01-25T03:54:46;96965.88;;;1.65;100.00
29169;BME280;16219;42.864;23.360;2023-01-25T03:57:13;96967.44;;;1.55;100.00
29169;BME280;16219;42.864;23.360;2023-01-25T03:59:48;96969.47;;;1.53;100.00
29169;BME280;16219;42.864;23.360;2023-01-25T04:02:16;96959.66;;;1.55;100.00
29169;BME280;16219;42.864;23.360;2023-01-25T04:04:43;96955.16;;;1.62;100.00
29169;BME280;16219;42.864;23.360;2023-01-25T04:07:11;96963.06;;;1.67;100.00
29169;BME280;16219;42.864;23.360;2023-01-25T04:09:41;96957.59;;;1.57;100.00
29169;BME280;16219;42.864;23.360;2023-01-25T04:12:10;96956.03;;;1.56;100.00
29169;BME280;16219;42.864;23.360;2023-01-25T04:14:37;96948.66;;;1.41;100.00
29169;BME280;16219;42.864;23.360;2023-01-25T04:17:05;96955.69;;;1.40;100.00
29169;BME280;16219;42.864;23.360;2023-01-25T04:19:41;96960.88;;;1.52;100.00
29169;BME280;16219;42.864;23.360;2023-01-25T04:22:13;96959.31;;;1.51;100.00
29169;BME280;16219;42.864;23.360;2023-01-25T04:24:41;96962.50;;;1.53;100.00
29169;BME280;16219;42.864;23.360;2023-01-25T04:27:09;96957.53;;;1.63;100.00
29169;BME280;16219;42.864;23.360;2023-01-25T04:29:50;96944.28;;;1.53;100.00
29169;BME280;16219;42.864;23.360;2023-01-25T04:32:19;96949.81;;;1.68;100.00
29169;BME280;16219;42.864;23.360;2023-01-25T04:34:46;96952.44;;;1.80;100.00
29169;BME280;16219;42.864;23.360;2023-01-25T04:37:20;96952.22;;;1.82;100.00
29169;BME280;16219;42.864;23.360;2023-01-25T04:39:55;96962.72;;;1.87;100.00
29169;BME280;16219;42.864;23.360;2023-01-25T04:42:23;96960.94;;;1.87;100.00
29169;BME280;16219;42.864;23.360;2023-01-25T04:44:53;96957.63;;;2.04;100.00
29169;BME280;16219;42.864;23.360;2023-01-25T04:47:21;96953.34;;;1.97;100.00
29169;BME280;16219;42.864;23.360;2023-01-25T04:49:48;96946.88;;;1.65;100.00
29169;BME280;16219;42.864;23.360;2023-01-25T04:52:19;96953.78;;;1.59;100.00
29169;BME280;16219;42.864;23.360;2023-01-25T04:54:46;96946.88;;;1.65;100.00
29169;BME280;16219;42.864;23.360;2023-01-25T04:57:14;96923.47;;;1.53;100.00
29169;BME280;16219;42.864;23.360;2023-01-25T04:59:47;96949.03;;;1.68;100.00
29169;BME280;16219;42.864;23.360;2023-01-25T05:02:14;96950.63;;;1.69;100.00
29169;BME280;16219;42.864;23.360;2023-01-25T05:04:41;96957.19;;;1.71;100.00
29169;BME280;16219;42.864;23.360;2023-01-25T05:07:08;96938.63;;;1.68;100.00
29169;BME280;16219;42.864;23.360;2023-01-25T05:09:35;96955.03;;;1.80;100.00
29169;BME280;16219;42.864;23.360;2023-01-25T05:12:03;96958.09;;;1.89;100.00
29169;BME280;16219;42.864;23.360;2023-01-25T05:14:51;96958.09;;;1.89;100.00
29169;BME280;16219;42.864;23.360;2023-01-25T05:17:20;96960.94;;;1.87;100.00
29169;BME280;16219;42.864;23.360;2023-01-25T05:19:47;96944.75;;;1.85;100.00
29169;BME280;16219;42.864;23.360;2023-01-25T05:22:18;96935.69;;;1.76;100.00
29169;BME280;16219;42.864;23.360;2023-01-25T05:24:49;96954.38;;;1.96;100.00
29169;BME280;16219;42.864;23.360;2023-01-25T05:27:18;96956.41;;;1.94;100.00
29169;BME280;16219;42.864;23.360;2023-01-25T05:29:56;96951.88;;;2.02;100.00
29169;BME280;16219;42.864;23.360;2023-01-25T05:32:47;96959.81;;;2.07;100.00
29169;BME280;16219;42.864;23.360;2023-01-25T05:35:16;96958.13;;;2.00;100.00
29169;BME280;16219;42.864;23.360;2023-01-25T05:37:44;96967.06;;;2.05;100.00
29169;BME280;16219;42.864;23.360;2023-01-25T05:40:19;96955.03;;;2.04;100.00
29169;BME280;16219;42.864;23.360;2023-01-25T05:42:52;96972.25;;;2.05;100.00
29169;BME280;16219;42.864;23.360;2023-01-25T05:45:23;96962.97;;;1.97;100.00
29169;BME280;16219;42.864;23.360;2023-01-25T05:47:53;96962.63;;;2.05;100.00
29169;BME280;16219;42.864;23.360;2023-01-25T05:50:21;96975.31;;;2.02;100.00
29169;BME280;16219;42.864;23.360;2023-01-25T05:53:09;96962.06;;;2.03;100.00
29169;BME280;16219;42.864;23.360;2023-01-25T05:55:38;96968.06;;;2.04;100.00
29169;BME280;16219;42.864;23.360;2023-01-25T05:58:08;96972.13;;;1.99;100.00
29169;BME280;16219;42.864;23.360;2023-01-25T06:00:38;96984.13;;;2.00;100.00
29169;BME280;16219;42.864;23.360;2023-01-25T06:03:06;96971.91;;;2.01;100.00
29169;BME280;16219;42.864;23.360;2023-01-25T06:05:35;96972.34;;;1.98;100.00
29169;BME280;16219;42.864;23.360;2023-01-25T06:08:03;96977.91;;;2.02;100.00
29169;BME280;16219;42.864;23.360;2023-01-25T06:10:42;96974.19;;;1.97;100.00
29169;BME280;16219;42.864;23.360;2023-01-25T06:13:10;96973.72;;;2.00;100.00
29169;BME280;16219;42.864;23.360;2023-01-25T06:15:38;96968.28;;;1.90;100.00
29169;BME280;16219;42.864;23.360;2023-01-25T06:18:32;96968.88;;;2.04;100.00
29169;BME280;16219;42.864;23.360;2023-01-25T06:21:28;96973.72;;;2.00;100.00
29169;BME280;16219;42.864;23.360;2023-01-25T06:23:55;96974.06;;;2.04;100.00
29169;BME280;16219;42.864;23.360;2023-01-25T06:26:23;96957.78;;;2.09;100.00
29169;BME280;16219;42.864;23.360;2023-01-25T06:28:50;96965.09;;;2.12;100.00
29169;BME280;16219;42.864;23.360;2023-01-25T06:31:18;96963.19;;;2.07;100.00
29169;BME280;16219;42.864;23.360;2023-01-25T06:33:47;96964.44;;;2.16;100.00
29169;BME280;16219;42.864;23.360;2023-01-25T06:36:18;96954.25;;;2.03;100.00
29169;BME280;16219;42.864;23.360;2023-01-25T06:38:47;96965.69;;;2.14;100.00
29169;BME280;16219;42.864;23.360;2023-01-25T06:41:15;96969.97;;;2.20;100.00
29169;BME280;16219;42.864;23.360;2023-01-25T06:43:42;96952.22;;;2.17;100.00
29169;BME280;16219;42.864;23.360;2023-01-25T06:46:10;96957.09;;;2.13;100.00
29169;BME280;16219;42.864;23.360;2023-01-25T06:48:39;96960.34;;;2.20;100.00
29169;BME280;16219;42.864;23.360;2023-01-25T06:51:08;96958.78;;;2.08;100.00
29169;BME280;16219;42.864;23.360;2023-01-25T06:53:37;96964.44;;;2.16;100.00
29169;BME280;16219;42.864;23.360;2023-01-25T06:56:07;96965.09;;;2.23;100.00
29169;BME280;16219;42.864;23.360;2023-01-25T06:58:35;96965.59;;;2.09;100.00
29169;BME280;16219;42.864;23.360;2023-01-25T07:01:12;96965.91;;;2.12;100.00
29169;BME280;16219;42.864;23.360;2023-01-25T07:03:42;96967.84;;;2.17;100.00
29169;BME280;16219;42.864;23.360;2023-01-25T07:06:09;96967.25;;;2.03;100.00
29169;BME280;16219;42.864;23.360;2023-01-25T07:08:37;96970.31;;;1.88;100.00
29169;BME280;16219;42.864;23.360;2023-01-25T07:11:06;96962.84;;;1.80;100.00
29169;BME280;16219;42.864;23.360;2023-01-25T07:13:35;96968.84;;;1.81;100.00
29169;BME280;16219;42.864;23.360;2023-01-25T07:16:04;96968.59;;;1.82;100.00
29169;BME280;16219;42.864;23.360;2023-01-25T07:18:32;96976.09;;;1.79;100.00
29169;BME280;16219;42.864;23.360;2023-01-25T07:21:04;96974.94;;;1.86;100.00
29169;BME280;16219;42.864;23.360;2023-01-25T07:23:33;96965.91;;;1.89;100.00
29169;BME280;16219;42.864;23.360;2023-01-25T07:26:03;96960.38;;;1.85;100.00
29169;BME280;16219;42.864;23.360;2023-01-25T07:28:30;96975.09;;;1.91;100.00
29169;BME280;16219;42.864;23.360;2023-01-25T07:31:03;96981.88;;;2.04;100.00
29169;BME280;16219;42.864;23.360;2023-01-25T07:33:30;96982.34;;;2.13;100.00
29169;BME280;16219;42.864;23.360;2023-01-25T07:35:59;96978.03;;;2.07;100.00
29169;BME280;16219;42.864;23.360;2023-01-25T07:38:27;96979.59;;;2.08;100.00
29169;BME280;16219;42.864;23.360;2023-01-25T07:40:54;96968.41;;;2.07;100.00
29169;BME280;16219;42.864;23.360;2023-01-25T07:43:22;96976.44;;;2.06;100.00
29169;BME280;16219;42.864;23.360;2023-01-25T07:45:50;96984.34;;;2.11;100.00
29169;BME280;16219;42.864;23.360;2023-01-25T07:48:18;96973.38;;;1.97;100.00
29169;BME280;16219;42.864;23.360;2023-01-25T07:50:46;96983.22;;;2.07;100.00
29169;BME280;16219;42.864;23.360;2023-01-25T07:53:34;96984.25;;;2.17;100.00
29169;BME280;16219;42.864;23.360;2023-01-25T07:56:01;96989.22;;;2.19;100.00
29169;BME280;16219;42.864;23.360;2023-01-25T07:58:29;96994.88;;;2.28;100.00
29169;BME280;16219;42.864;23.360;2023-01-25T08:00:56;96987.06;;;2.39;100.00
29169;BME280;16219;42.864;23.360;2023-01-25T08:03:23;96980.84;;;2.40;100.00
29169;BME280;16219;42.864;23.360;2023-01-25T08:05:50;96984.13;;;2.47;100.00
29169;BME280;16219;42.864;23.360;2023-01-25T08:08:17;96990.31;;;2.58;100.00
29169;BME280;16219;42.864;23.360;2023-01-25T08:10:46;96986.22;;;2.62;100.00
29169;BME280;16219;42.864;23.360;2023-01-25T08:13:13;96977.38;;;2.63;100.00
29169;BME280;16219;42.864;23.360;2023-01-25T08:15:40;96983.38;;;2.75;100.00
29169;BME280;16219;42.864;23.360;2023-01-25T08:18:07;96976.94;;;2.66;100.00
29169;BME280;16219;42.864;23.360;2023-01-25T08:20:34;96976.81;;;2.73;100.00
29169;BME280;16219;42.864;23.360;2023-01-25T08:23:05;96981.75;;;2.86;100.00
29169;BME280;16219;42.864;23.360;2023-01-25T08:25:32;96982.78;;;2.85;100.00
29169;BME280;16219;42.864;23.360;2023-01-25T08:28:00;96985.69;;;2.89;100.00
29169;BME280;16219;42.864;23.360;2023-01-25T08:30:27;96987.16;;;2.96;100.00
29169;BME280;16219;42.864;23.360;2023-01-25T08:32:55;96977.63;;;3.02;100.00
29169;BME280;16219;42.864;23.360;2023-01-25T08:35:22;96968.22;;;3.01;100.00
29169;BME280;16219;42.864;23.360;2023-01-25T08:37:49;96966.59;;;3.12;100.00
29169;BME280;16219;42.864;23.360;2023-01-25T08:40:16;96966.69;;;3.17;100.00
29169;BME280;16219;42.864;23.360;2023-01-25T08:42:43;96985.09;;;3.27;100.00
29169;BME280;16219;42.864;23.360;2023-01-25T08:45:12;96976.28;;;3.28;100.00
29169;BME280;16219;42.864;23.360;2023-01-25T08:47:39;96985.56;;;3.36;100.00
29169;BME280;16219;42.864;23.360;2023-01-25T08:50:07;96988.47;;;3.39;100.00
29169;BME280;16219;42.864;23.360;2023-01-25T08:52:34;96989.88;;;3.30;100.00
29169;BME280;16219;42.864;23.360;2023-01-25T08:55:01;96978.66;;;3.30;100.00
29169;BME280;16219;42.864;23.360;2023-01-25T08:57:29;96982.44;;;3.39;100.00
29169;BME280;16219;42.864;23.360;2023-01-25T08:59:56;96978.59;;;3.41;100.00
29169;BME280;16219;42.864;23.360;2023-01-25T09:02:25;96982.69;;;3.37;100.00
29169;BME280;16219;42.864;23.360;2023-01-25T09:04:52;96968.94;;;3.42;100.00
29169;BME280;16219;42.864;23.360;2023-01-25T09:07:19;96966.00;;;3.38;100.00
29169;BME280;16219;42.864;23.360;2023-01-25T09:09:46;96965.47;;;3.36;100.00
29169;BME280;16219;42.864;23.360;2023-01-25T09:12:14;96969.72;;;3.42;100.00
29169;BME280;16219;42.864;23.360;2023-01-25T09:14:41;96966.66;;;3.45;100.00
29169;BME280;16219;42.864;23.360;2023-01-25T09:17:08;96960.72;;;3.33;100.00
29169;BME280;16219;42.864;23.360;2023-01-25T09:19:37;96964.09;;;3.34;100.00
29169;BME280;16219;42.864;23.360;2023-01-25T09:22:06;96961.19;;;3.30;100.00
29169;BME280;16219;42.864;23.360;2023-01-25T09:24:34;96965.28;;;3.26;100.00
29169;BME280;16219;42.864;23.360;2023-01-25T09:27:01;96945.16;;;3.10;100.00
29169;BME280;16219;42.864;23.360;2023-01-25T09:29:28;96949.53;;;3.21;100.00
29169;BME280;16219;42.864;23.360;2023-01-25T09:31:55;96936.81;;;3.08;100.00
29169;BME280;16219;42.864;23.360;2023-01-25T09:34:30;96938.25;;;3.15;100.00
29169;BME280;16219;42.864;23.360;2023-01-25T09:36:59;96936.59;;;3.26;100.00
29169;BME280;16219;42.864;23.360;2023-01-25T09:39:26;96916.44;;;3.21;100.00
29169;BME280;16219;42.864;23.360;2023-01-25T09:42:15;96923.88;;;3.30;100.00
29169;BME280;16219;42.864;23.360;2023-01-25T09:44:59;96921.84;;;3.32;100.00
29169;BME280;16219;42.864;23.360;2023-01-25T09:47:38;96921.50;;;3.28;100.00
29169;BME280;16219;42.864;23.360;2023-01-25T09:50:32;96919.72;;;3.45;100.00
29169;BME280;16219;42.864;23.360;2023-01-25T09:53:16;96925.00;;;3.50;100.00
29169;BME280;16219;42.864;23.360;2023-01-25T09:55:49;96913.59;;;3.57;100.00
29169;BME280;16219;42.864;23.360;2023-01-25T09:58:19;96906.81;;;3.56;100.00
29169;BME280;16219;42.864;23.360;2023-01-25T10:00:49;96894.66;;;3.44;100.00
29169;BME280;16219;42.864;23.360;2023-01-25T10:03:23;96908.63;;;3.55;100.00
29169;BME280;16219;42.864;23.360;2023-01-25T10:05:54;96895.28;;;3.51;100.00
29169;BME280;16219;42.864;23.360;2023-01-25T10:08:29;96885.81;;;3.45;100.00
29169;BME280;16219;42.864;23.360;2023-01-25T10:11:01;96887.06;;;3.60;100.00
29169;BME280;16219;42.864;23.360;2023-01-25T10:13:30;96884.06;;;3.51;100.00
29169;BME280;16219;42.864;23.360;2023-01-25T10:16:02;96881.75;;;3.55;100.00
29169;BME280;16219;42.864;23.360;2023-01-25T10:18:33;96871.41;;;3.60;100.00
29169;BME280;16219;42.864;23.360;2023-01-25T10:21:06;96863.63;;;3.65;100.00
29169;BME280;16219;42.864;23.360;2023-01-25T10:24:04;96867.91;;;3.71;100.00
29169;BME280;16219;42.864;23.360;2023-01-25T10:26:36;96867.44;;;3.74;100.00
29169;BME280;16219;42.864;23.360;2023-01-25T10:29:10;96858.91;;;3.79;100.00
29169;BME280;16219;42.864;23.360;2023-01-25T10:31:43;96851.91;;;3.84;100.00
29169;BME280;16219;42.864;23.360;2023-01-25T10:34:18;96823.63;;;3.76;100.00
29169;BME280;16219;42.864;23.360;2023-01-25T10:36:48;96838.00;;;3.79;100.00
29169;BME280;16219;42.864;23.360;2023-01-25T10:39:18;96838.28;;;3.82;100.00
29169;BME280;16219;42.864;23.360;2023-01-25T10:41:48;96829.31;;;3.73;100.00
29169;BME280;16219;42.864;23.360;2023-01-25T10:44:16;96835.47;;;3.84;100.00
29169;BME280;16219;42.864;23.360;2023-01-25T10:47:04;96820.13;;;3.87;100.00
29169;BME280;16219;42.864;23.360;2023-01-25T10:49:40;96826.53;;;4.01;100.00
29169;BME280;16219;42.864;23.360;2023-01-25T10:52:13;96814.91;;;3.87;100.00
29169;BME280;16219;42.864;23.360;2023-01-25T10:54:42;96816.81;;;3.75;100.00
29169;BME280;16219;42.864;23.360;2023-01-25T10:57:13;96825.81;;;3.84;100.00
29169;BME280;16219;42.864;23.360;2023-01-25T10:59:43;96813.28;;;3.86;100.00
29169;BME280;16219;42.864;23.360;2023-01-25T11:02:37;96812.16;;;3.99;100.00
29169;BME280;16219;42.864;23.360;2023-01-25T11:05:25;96812.66;;;3.96;100.00
29169;BME280;16219;42.864;23.360;2023-01-25T11:07:52;96813.91;;;3.93;100.00
29169;BME280;16219;42.864;23.360;2023-01-25T11:10:33;96808.94;;;3.92;100.00
29169;BME280;16219;42.864;23.360;2023-01-25T11:13:21;96802.06;;;4.08;100.00
29169;BME280;16219;42.864;23.360;2023-01-25T11:15:51;96792.56;;;3.96;100.00
29169;BME280;16219;42.864;23.360;2023-01-25T11:18:21;96799.44;;;4.08;100.00
29169;BME280;16219;42.864;23.360;2023-01-25T11:21:04;96791.19;;;4.16;100.00
29169;BME280;16219;42.864;23.360;2023-01-25T11:23:32;96798.91;;;4.28;100.00
29169;BME280;16219;42.864;23.360;2023-01-25T11:26:13;96794.16;;;4.24;100.00
29169;BME280;16219;42.864;23.360;2023-01-25T11:28:41;96779.84;;;4.05;100.00
29169;BME280;16219;42.864;23.360;2023-01-25T11:31:11;96778.03;;;4.06;100.00
29169;BME280;16219;42.864;23.360;2023-01-25T11:33:40;96773.41;;;4.13;100.00
29169;BME280;16219;42.864;23.360;2023-01-25T11:36:24;96772.06;;;4.10;100.00
29169;BME280;16219;42.864;23.360;2023-01-25T11:39:07;96777.13;;;4.17;100.00
29169;BME280;16219;42.864;23.360;2023-01-25T11:41:59;96766.38;;;4.13;100.00
29169;BME280;16219;42.864;23.360;2023-01-25T11:45:05;96778.22;;;4.21;100.00
29169;BME280;16219;42.864;23.360;2023-01-25T11:47:50;96773.41;;;4.13;100.00
29169;BME280;16219;42.864;23.360;2023-01-25T11:50:25;96771.91;;;4.17;100.00
29169;BME280;16219;42.864;23.360;2023-01-25T11:53:17;96758.97;;;4.05;100.00
29169;BME280;16219;42.864;23.360;2023-01-25T11:55:57;96751.88;;;4.00;100.00
29169;BME280;16219;42.864;23.360;2023-01-25T11:58:52;96755.81;;;4.03;100.00
29169;BME280;16219;42.864;23.360;2023-01-25T12:01:30;96747.75;;;4.05;100.00
29169;BME280;16219;42.864;23.360;2023-01-25T12:07:04;96730.16;;;4.22;100.00
29169;BME280;16219;42.864;23.360;2023-01-25T12:09:44;96736.22;;;4.28;100.00
29169;BME280;16219;42.864;23.360;2023-01-25T12:12:24;96724.28;;;4.10;100.00
29169;BME280;16219;42.864;23.360;2023-01-25T12:15:13;96719.94;;;4.20;100.00
29169;BME280;16219;42.864;23.360;2023-01-25T12:18:03;96717.81;;;4.12;100.00
29169;BME280;16219;42.864;23.360;2023-01-25T12:20:54;96710.69;;;4.08;100.00
29169;BME280;16219;42.864;23.360;2023-01-25T12:23:34;96719.16;;;4.20;100.00
29169;BME280;16219;42.864;23.360;2023-01-25T12:26:12;96715.47;;;4.16;100.00
29169;BME280;16219;42.864;23.360;2023-01-25T12:28:45;96706.09;;;4.20;100.00
29169;BME280;16219;42.864;23.360;2023-01-25T12:31:20;96704.66;;;4.07;100.00
29169;BME280;16219;42.864;23.360;2023-01-25T12:33:53;96703.16;;;4.11;100.00
29169;BME280;16219;42.864;23.360;2023-01-25T12:36:26;96700.31;;;4.13;100.00
29169;BME280;16219;42.864;23.360;2023-01-25T12:39:00;96702.66;;;4.14;100.00
29169;BME280;16219;42.864;23.360;2023-01-25T12:41:37;96699.56;;;4.17;100.00
29169;BME280;16219;42.864;23.360;2023-01-25T12:44:13;96697.13;;;4.11;100.00
29169;BME280;16219;42.864;23.360;2023-01-25T12:46:45;96690.38;;;4.15;100.00
29169;BME280;16219;42.864;23.360;2023-01-25T12:49:22;96701.72;;;3.98;100.00
29169;BME280;16219;42.864;23.360;2023-01-25T12:51:54;96693.69;;;4.05;100.00
29169;BME280;16219;42.864;23.360;2023-01-25T12:54:28;96687.81;;;3.93;100.00
29169;BME280;16219;42.864;23.360;2023-01-25T12:57:04;96677.56;;;3.86;100.00
29169;BME280;16219;42.864;23.360;2023-01-25T12:59:42;96683.13;;;3.95;100.00
29169;BME280;16219;42.864;23.360;2023-01-25T13:02:27;96685.38;;;4.08;100.00
29169;BME280;16219;42.864;23.360;2023-01-25T13:05:02;96693.34;;;3.96;100.00
29169;BME280;16219;42.864;23.360;2023-01-25T13:07:42;96684.31;;;3.82;100.00
29169;BME280;16219;42.864;23.360;2023-01-25T13:10:16;96684.50;;;3.75;100.00
29169;BME280;16219;42.864;23.360;2023-01-25T13:12:52;96678.50;;;3.75;100.00
29169;BME280;16219;42.864;23.360;2023-01-25T13:15:38;96668.44;;;3.62;100.00
29169;BME280;16219;42.864;23.360;2023-01-25T13:21:41;96665.44;;;3.75;100.00